Acmar, Alabama
Current Conditions -  °F | °C
As of 4:53 PM on Saturday 20 Dec 2014 (Local Time) from KBHM Reporting Station
Broken Clouds Broken Clouds  
Wind Chill: 46°   Ceiling: 3800
Heat Index: 48°   Visibility: 10mi
Dew Point: 38°   Wind: 5mph
Humidity: 68%   Direction: 360°N
Pressure: 30.2"   Gusts: NA
Location:  33.6013°N, 86.5003°W
Report Text: KBHM 202253Z 36004KT 10SM BKN038 09/03 A3020 RMK AO2 SLP227 T00890033
Loading
Personal Weather Stations






























Interactive Weather Map New forecast layout! Learn more

10-Day Weather Forecast

Advertisements
Track Severe Weather on mobile